sensor_id;sensor_type;location;lat;lon;timestamp;pressure;altitude;pressure_sealevel;temperature;humidity
63652;BME280;49801;37.536;-122.304;2022-12-18T00:00:04;101625.41;;;10.95;53.51
63652;BME280;49801;37.536;-122.304;2022-12-18T00:00:30;101629.97;;;10.94;53.80
63652;BME280;49801;37.536;-122.304;2022-12-18T00:00:56;101625.56;;;10.93;54.19
63652;BME280;49801;37.536;-122.304;2022-12-18T00:01:50;101629.28;;;10.92;53.73
63652;BME280;49801;37.536;-122.304;2022-12-18T00:02:16;101633.00;;;10.91;53.30
63652;BME280;49801;37.536;-122.304;2022-12-18T00:02:41;101632.84;;;10.93;53.68
63652;BME280;49801;37.536;-122.304;2022-12-18T00:03:07;101630.28;;;10.91;53.31
63652;BME280;49801;37.536;-122.304;2022-12-18T00:03:33;101636.41;;;10.93;53.67
63652;BME280;49801;37.536;-122.304;2022-12-18T00:04:00;101632.00;;;10.92;53.48
63652;BME280;49801;37.536;-122.304;2022-12-18T00:04:26;101633.00;;;10.91;53.53
63652;BME280;49801;37.536;-122.304;2022-12-18T00:04:52;101646.53;;;10.91;53.94
63652;BME280;49801;37.536;-122.304;2022-12-18T00:05:17;101635.00;;;10.89;54.25
63652;BME280;49801;37.536;-122.304;2022-12-18T00:05:49;101636.88;;;10.88;54.31
63652;BME280;49801;37.536;-122.304;2022-12-18T00:06:15;101636.19;;;10.86;54.31
63652;BME280;49801;37.536;-122.304;2022-12-18T00:06:41;101628.34;;;10.83;54.40
63652;BME280;49801;37.536;-122.304;2022-12-18T00:07:07;101636.63;;;10.82;54.38
63652;BME280;49801;37.536;-122.304;2022-12-18T00:07:33;101635.94;;;10.80;54.14
63652;BME280;49801;37.536;-122.304;2022-12-18T00:07:59;101630.66;;;10.78;54.15
63652;BME280;49801;37.536;-122.304;2022-12-18T00:08:24;101629.78;;;10.78;54.53
63652;BME280;49801;37.536;-122.304;2022-12-18T00:08:50;101633.53;;;10.77;54.81
63652;BME280;49801;37.536;-122.304;2022-12-18T00:09:16;101634.66;;;10.74;54.61
63652;BME280;49801;37.536;-122.304;2022-12-18T00:09:42;101633.81;;;10.74;54.50
63652;BME280;49801;37.536;-122.304;2022-12-18T00:10:08;101636.69;;;10.72;54.92
63652;BME280;49801;37.536;-122.304;2022-12-18T00:10:34;101631.56;;;10.69;54.93
63652;BME280;49801;37.536;-122.304;2022-12-18T00:11:10;101633.56;;;10.67;54.81
63652;BME280;49801;37.536;-122.304;2022-12-18T00:11:36;101633.72;;;10.65;55.12
63652;BME280;49801;37.536;-122.304;2022-12-18T00:12:02;101625.91;;;10.62;55.20
63652;BME280;49801;37.536;-122.304;2022-12-18T00:12:28;101629.63;;;10.61;55.91
63652;BME280;49801;37.536;-122.304;2022-12-18T00:12:54;101631.66;;;10.59;55.60
63652;BME280;49801;37.536;-122.304;2022-12-18T00:13:20;101632.78;;;10.57;55.27
63652;BME280;49801;37.536;-122.304;2022-12-18T00:13:45;101629.38;;;10.55;55.47
63652;BME280;49801;37.536;-122.304;2022-12-18T00:14:12;101638.66;;;10.52;56.03
63652;BME280;49801;37.536;-122.304;2022-12-18T00:14:38;101634.25;;;10.51;55.79
63652;BME280;49801;37.536;-122.304;2022-12-18T00:15:04;101630.84;;;10.49;56.05
63652;BME280;49801;37.536;-122.304;2022-12-18T00:15:30;101632.84;;;10.47;55.87
63652;BME280;49801;37.536;-122.304;2022-12-18T00:15:55;101633.84;;;10.46;55.83
63652;BME280;49801;37.536;-122.304;2022-12-18T00:16:27;101631.44;;;10.43;56.32
63652;BME280;49801;37.536;-122.304;2022-12-18T00:16:53;101642.25;;;10.43;56.21
63652;BME280;49801;37.536;-122.304;2022-12-18T00:17:18;101635.16;;;10.42;56.26
63652;BME280;49801;37.536;-122.304;2022-12-18T00:17:44;101639.16;;;10.38;56.74
63652;BME280;49801;37.536;-122.304;2022-12-18T00:18:10;101634.75;;;10.37;56.80
63652;BME280;49801;37.536;-122.304;2022-12-18T00:18:36;101629.47;;;10.35;55.87
63652;BME280;49801;37.536;-122.304;2022-12-18T00:19:02;101633.19;;;10.34;55.64
63652;BME280;49801;37.536;-122.304;2022-12-18T00:19:28;101635.03;;;10.34;55.07
63652;BME280;49801;37.536;-122.304;2022-12-18T00:19:54;101636.03;;;10.32;55.08
63652;BME280;49801;37.536;-122.304;2022-12-18T00:20:20;101635.88;;;10.34;55.03
63652;BME280;49801;37.536;-122.304;2022-12-18T00:20:50;101629.63;;;10.34;55.08
63652;BME280;49801;37.536;-122.304;2022-12-18T00:21:16;101638.59;;;10.34;55.06
63652;BME280;49801;37.536;-122.304;2022-12-18T00:21:43;101632.34;;;10.34;54.86
63652;BME280;49801;37.536;-122.304;2022-12-18T00:22:09;101643.16;;;10.34;55.34
63652;BME280;49801;37.536;-122.304;2022-12-18T00:22:34;101631.47;;;10.33;55.52
63652;BME280;49801;37.536;-122.304;2022-12-18T00:23:00;101623.53;;;10.31;55.60
63652;BME280;49801;37.536;-122.304;2022-12-18T00:23:26;101634.34;;;10.31;55.66
63652;BME280;49801;37.536;-122.304;2022-12-18T00:23:52;101632.59;;;10.30;55.65
63652;BME280;49801;37.536;-122.304;2022-12-18T00:24:18;101628.31;;;10.28;55.58
63652;BME280;49801;37.536;-122.304;2022-12-18T00:24:44;101633.72;;;10.28;54.95
63652;BME280;49801;37.536;-122.304;2022-12-18T00:25:09;101629.47;;;10.25;54.59
63652;BME280;49801;37.536;-122.304;2022-12-18T00:25:35;101627.75;;;10.24;54.48
63652;BME280;49801;37.536;-122.304;2022-12-18T00:26:02;101632.19;;;10.25;54.70
63652;BME280;49801;37.536;-122.304;2022-12-18T00:26:29;101638.31;;;10.27;54.65
63652;BME280;49801;37.536;-122.304;2022-12-18T00:26:56;101629.19;;;10.28;54.85
63652;BME280;49801;37.536;-122.304;2022-12-18T00:27:21;101636.63;;;10.26;54.92
63652;BME280;49801;37.536;-122.304;2022-12-18T00:27:47;101636.63;;;10.26;55.01
63652;BME280;49801;37.536;-122.304;2022-12-18T00:28:13;101629.63;;;10.24;55.22
63652;BME280;49801;37.536;-122.304;2022-12-18T00:28:39;101629.78;;;10.22;54.94
63652;BME280;49801;37.536;-122.304;2022-12-18T00:29:06;101633.50;;;10.21;55.06
63652;BME280;49801;37.536;-122.304;2022-12-18T00:29:32;101627.22;;;10.21;55.26
63652;BME280;49801;37.536;-122.304;2022-12-18T00:29:58;101637.19;;;10.20;55.60
63652;BME280;49801;37.536;-122.304;2022-12-18T00:30:23;101637.50;;;10.17;55.60
63652;BME280;49801;37.536;-122.304;2022-12-18T00:30:49;101630.38;;;10.16;55.17
63652;BME280;49801;37.536;-122.304;2022-12-18T00:31:18;101622.41;;;10.14;54.27
63652;BME280;49801;37.536;-122.304;2022-12-18T00:31:44;101627.69;;;10.16;54.66
63652;BME280;49801;37.536;-122.304;2022-12-18T00:32:10;101628.66;;;10.15;54.59
63652;BME280;49801;37.536;-122.304;2022-12-18T00:32:35;101627.09;;;10.12;55.04
63652;BME280;49801;37.536;-122.304;2022-12-18T00:33:02;101628.13;;;10.11;55.45
63652;BME280;49801;37.536;-122.304;2022-12-18T00:33:28;101625.41;;;10.11;55.67
63652;BME280;49801;37.536;-122.304;2022-12-18T00:33:54;101627.28;;;10.11;55.49
63652;BME280;49801;37.536;-122.304;2022-12-18T00:34:20;101633.81;;;10.08;55.22
63652;BME280;49801;37.536;-122.304;2022-12-18T00:34:46;101625.28;;;10.03;55.06
63652;BME280;49801;37.536;-122.304;2022-12-18T00:35:12;101631.72;;;10.02;55.16
63652;BME280;49801;37.536;-122.304;2022-12-18T00:35:38;101628.13;;;10.02;55.17
63652;BME280;49801;37.536;-122.304;2022-12-18T00:36:07;101626.44;;;10.01;55.18
63652;BME280;49801;37.536;-122.304;2022-12-18T00:36:33;101631.88;;;10.01;55.89
63652;BME280;49801;37.536;-122.304;2022-12-18T00:36:59;101627.59;;;9.98;55.81
63652;BME280;49801;37.536;-122.304;2022-12-18T00:37:25;101631.31;;;9.97;55.76
63652;BME280;49801;37.536;-122.304;2022-12-18T00:37:51;101629.59;;;9.96;56.14
63652;BME280;49801;37.536;-122.304;2022-12-18T00:38:17;101624.47;;;9.93;56.19
63652;BME280;49801;37.536;-122.304;2022-12-18T00:38:42;101631.88;;;9.91;56.78
63652;BME280;49801;37.536;-122.304;2022-12-18T00:39:09;101631.31;;;9.87;57.01
63652;BME280;49801;37.536;-122.304;2022-12-18T00:39:35;101637.03;;;9.84;57.74
63652;BME280;49801;37.536;-122.304;2022-12-18T00:40:01;101631.06;;;9.81;58.02
63652;BME280;49801;37.536;-122.304;2022-12-18T00:40:27;101631.19;;;9.79;57.85
63652;BME280;49801;37.536;-122.304;2022-12-18T00:40:53;101633.34;;;9.75;58.35
63652;BME280;49801;37.536;-122.304;2022-12-18T00:41:19;101637.03;;;9.74;58.61
63652;BME280;49801;37.536;-122.304;2022-12-18T00:42:03;101638.19;;;9.72;59.14
63652;BME280;49801;37.536;-122.304;2022-12-18T00:42:47;101630.50;;;9.67;59.53
63652;BME280;49801;37.536;-122.304;2022-12-18T00:43:21;101633.34;;;9.66;59.87
63652;BME280;49801;37.536;-122.304;2022-12-18T00:43:47;101638.06;;;9.64;59.83
63652;BME280;49801;37.536;-122.304;2022-12-18T00:44:14;101632.94;;;9.61;60.46
63652;BME280;49801;37.536;-122.304;2022-12-18T00:44:40;101636.66;;;9.60;60.46
63652;BME280;49801;37.536;-122.304;2022-12-18T00:45:06;101628.81;;;9.56;61.16
63652;BME280;49801;37.536;-122.304;2022-12-18T00:45:31;101633.53;;;9.54;61.53
63652;BME280;49801;37.536;-122.304;2022-12-18T00:45:57;101642.75;;;9.52;61.47
63652;BME280;49801;37.536;-122.304;2022-12-18T00:46:23;101637.63;;;9.49;61.94
63652;BME280;49801;37.536;-122.304;2022-12-18T00:46:49;101642.34;;;9.47;62.29
63652;BME280;49801;37.536;-122.304;2022-12-18T00:47:15;101634.50;;;9.44;62.32
63652;BME280;49801;37.536;-122.304;2022-12-18T00:47:41;101636.50;;;9.42;62.56
63652;BME280;49801;37.536;-122.304;2022-12-18T00:48:06;101639.34;;;9.40;62.64
63652;BME280;49801;37.536;-122.304;2022-12-18T00:48:32;101629.69;;;9.37;62.99
63652;BME280;49801;37.536;-122.304;2022-12-18T00:48:58;101634.53;;;9.34;63.05
63652;BME280;49801;37.536;-122.304;2022-12-18T00:49:24;101633.66;;;9.33;62.98
63652;BME280;49801;37.536;-122.304;2022-12-18T00:49:50;101633.97;;;9.30;63.49
63652;BME280;49801;37.536;-122.304;2022-12-18T00:50:15;101633.09;;;9.30;63.64
63652;BME280;49801;37.536;-122.304;2022-12-18T00:50:41;101637.09;;;9.26;63.80
63652;BME280;49801;37.536;-122.304;2022-12-18T00:51:07;101631.97;;;9.23;64.03
63652;BME280;49801;37.536;-122.304;2022-12-18T00:51:34;101628.56;;;9.20;63.94
63652;BME280;49801;37.536;-122.304;2022-12-18T00:51:59;101630.56;;;9.18;64.00
63652;BME280;49801;37.536;-122.304;2022-12-18T00:52:25;101632.56;;;9.16;64.04
63652;BME280;49801;37.536;-122.304;2022-12-18T00:52:51;101624.72;;;9.13;64.14
63652;BME280;49801;37.536;-122.304;2022-12-18T00:53:17;101631.25;;;9.11;64.73
63652;BME280;49801;37.536;-122.304;2022-12-18T00:53:43;101625.97;;;9.09;64.76
63652;BME280;49801;37.536;-122.304;2022-12-18T00:54:09;101626.28;;;9.06;64.97
63652;BME280;49801;37.536;-122.304;2022-12-18T00:54:35;101624.84;;;9.02;65.39
63652;BME280;49801;37.536;-122.304;2022-12-18T00:55:00;101581.03;;;8.69;65.28
63652;BME280;49801;37.536;-122.304;2022-12-18T00:55:26;101623.44;;;8.98;65.36
63652;BME280;49801;37.536;-122.304;2022-12-18T00:55:52;101621.84;;;8.95;65.38
63652;BME280;49801;37.536;-122.304;2022-12-18T00:56:17;101626.53;;;8.93;65.64
63652;BME280;49801;37.536;-122.304;2022-12-18T00:56:43;101626.81;;;8.90;66.20
63652;BME280;49801;37.536;-122.304;2022-12-18T00:57:09;101633.38;;;8.88;66.25
63652;BME280;49801;37.536;-122.304;2022-12-18T00:57:35;101619.16;;;8.86;66.43
63652;BME280;49801;37.536;-122.304;2022-12-18T00:58:01;101621.13;;;8.83;66.89
63652;BME280;49801;37.536;-122.304;2022-12-18T00:58:26;101628.50;;;8.81;66.97
63652;BME280;49801;37.536;-122.304;2022-12-18T00:58:52;101630.50;;;8.79;67.27
63652;BME280;49801;37.536;-122.304;2022-12-18T00:59:18;101627.09;;;8.77;67.01
63652;BME280;49801;37.536;-122.304;2022-12-18T00:59:44;101631.06;;;8.73;67.23
63652;BME280;49801;37.536;-122.304;2022-12-18T01:00:11;101633.03;;;8.71;67.29
63652;BME280;49801;37.536;-122.304;2022-12-18T01:00:38;101627.94;;;8.68;67.63
63652;BME280;49801;37.536;-122.304;2022-12-18T01:01:04;101637.03;;;8.67;67.87
63652;BME280;49801;37.536;-122.304;2022-12-18T01:01:30;101631.88;;;8.64;68.17
63652;BME280;49801;37.536;-122.304;2022-12-18T01:01:56;101635.59;;;8.63;68.16
63652;BME280;49801;37.536;-122.304;2022-12-18T01:02:21;101630.47;;;8.60;68.16
63652;BME280;49801;37.536;-122.304;2022-12-18T01:02:47;101628.75;;;8.59;68.38
63652;BME280;49801;37.536;-122.304;2022-12-18T01:03:13;101628.19;;;8.55;68.20
63652;BME280;49801;37.536;-122.304;2022-12-18T01:03:39;101635.56;;;8.53;68.28
63652;BME280;49801;37.536;-122.304;2022-12-18T01:04:05;101633.00;;;8.52;68.67
63652;BME280;49801;37.536;-122.304;2022-12-18T01:04:31;101629.59;;;8.50;68.66
63652;BME280;49801;37.536;-122.304;2022-12-18T01:04:57;101628.13;;;8.45;68.56
63652;BME280;49801;37.536;-122.304;2022-12-18T01:05:23;101630.13;;;8.43;69.09
63652;BME280;49801;37.536;-122.304;2022-12-18T01:05:48;101626.69;;;8.41;68.70
63652;BME280;49801;37.536;-122.304;2022-12-18T01:06:14;101624.38;;;8.37;69.04
63652;BME280;49801;37.536;-122.304;2022-12-18T01:06:40;101631.63;;;8.36;69.16
63652;BME280;49801;37.536;-122.304;2022-12-18T01:07:06;101629.19;;;8.33;68.73
63652;BME280;49801;37.536;-122.304;2022-12-18T01:07:32;101629.47;;;8.30;69.00
63652;BME280;49801;37.536;-122.304;2022-12-18T01:07:58;101625.22;;;8.27;69.18
63652;BME280;49801;37.536;-122.304;2022-12-18T01:08:23;101630.03;;;8.24;69.40
63652;BME280;49801;37.536;-122.304;2022-12-18T01:08:49;101628.44;;;8.21;69.63
63652;BME280;49801;37.536;-122.304;2022-12-18T01:09:15;101626.88;;;8.19;69.60
63652;BME280;49801;37.536;-122.304;2022-12-18T01:09:41;101633.13;;;8.19;69.79
63652;BME280;49801;37.536;-122.304;2022-12-18T01:10:07;101623.47;;;8.17;70.10
63652;BME280;49801;37.536;-122.304;2022-12-18T01:10:34;101629.13;;;8.14;70.20
63652;BME280;49801;37.536;-122.304;2022-12-18T01:11:00;101631.13;;;8.12;70.26
63652;BME280;49801;37.536;-122.304;2022-12-18T01:11:26;101635.75;;;8.10;70.36
63652;BME280;49801;37.536;-122.304;2022-12-18T01:11:52;101627.97;;;8.06;70.28
63652;BME280;49801;37.536;-122.304;2022-12-18T01:12:18;101637.03;;;8.05;70.21
63652;BME280;49801;37.536;-122.304;2022-12-18T01:12:43;101630.22;;;8.01;70.52
63652;BME280;49801;37.536;-122.304;2022-12-18T01:13:09;101634.03;;;7.99;70.61
63652;BME280;49801;37.536;-122.304;2022-12-18T01:13:35;101629.75;;;7.96;70.58
63652;BME280;49801;37.536;-122.304;2022-12-18T01:14:01;101633.56;;;7.94;70.38
63652;BME280;49801;37.536;-122.304;2022-12-18T01:14:26;101631.00;;;7.92;71.25
63652;BME280;49801;37.536;-122.304;2022-12-18T01:14:52;101631.28;;;7.89;71.13
63652;BME280;49801;37.536;-122.304;2022-12-18T01:15:18;101633.25;;;7.87;71.06
63652;BME280;49801;37.536;-122.304;2022-12-18T01:15:48;101637.91;;;7.85;71.22
63652;BME280;49801;37.536;-122.304;2022-12-18T01:16:15;101635.47;;;7.82;71.18
63652;BME280;49801;37.536;-122.304;2022-12-18T01:16:41;101636.63;;;7.79;71.13
63652;BME280;49801;37.536;-122.304;2022-12-18T01:17:07;101634.06;;;7.78;71.05
63652;BME280;49801;37.536;-122.304;2022-12-18T01:17:33;101640.53;;;7.75;71.32
63652;BME280;49801;37.536;-122.304;2022-12-18T01:17:58;101634.56;;;7.72;71.47
63652;BME280;49801;37.536;-122.304;2022-12-18T01:18:24;101632.16;;;7.68;71.33
63652;BME280;49801;37.536;-122.304;2022-12-18T01:18:53;101636.81;;;7.66;71.39
63652;BME280;49801;37.536;-122.304;2022-12-18T01:19:19;101640.50;;;7.65;71.52
63652;BME280;49801;37.536;-122.304;2022-12-18T01:19:45;101633.41;;;7.64;71.59
63652;BME280;49801;37.536;-122.304;2022-12-18T01:20:12;101640.75;;;7.62;71.68
63652;BME280;49801;37.536;-122.304;2022-12-18T01:20:38;101635.38;;;7.62;71.61
63652;BME280;49801;37.536;-122.304;2022-12-18T01:21:10;101637.34;;;7.60;71.69
63652;BME280;49801;37.536;-122.304;2022-12-18T01:21:36;101632.22;;;7.57;71.94
63652;BME280;49801;37.536;-122.304;2022-12-18T01:22:02;101632.34;;;7.56;71.75
63652;BME280;49801;37.536;-122.304;2022-12-18T01:22:28;101630.63;;;7.55;71.77
63652;BME280;49801;37.536;-122.304;2022-12-18T01:22:54;101630.78;;;7.53;71.82
63652;BME280;49801;37.536;-122.304;2022-12-18T01:23:20;101632.72;;;7.51;71.84
63652;BME280;49801;37.536;-122.304;2022-12-18T01:23:45;101631.88;;;7.50;72.12
63652;BME280;49801;37.536;-122.304;2022-12-18T01:24:11;101627.63;;;7.48;71.92
63652;BME280;49801;37.536;-122.304;2022-12-18T01:24:37;101630.44;;;7.46;72.02
63652;BME280;49801;37.536;-122.304;2022-12-18T01:25:03;101633.28;;;7.45;72.13
63652;BME280;49801;37.536;-122.304;2022-12-18T01:25:29;101631.53;;;7.44;72.10
63652;BME280;49801;37.536;-122.304;2022-12-18T01:25:55;101629.84;;;7.43;72.04
63652;BME280;49801;37.536;-122.304;2022-12-18T01:26:21;101625.56;;;7.40;72.05
63652;BME280;49801;37.536;-122.304;2022-12-18T01:26:47;101640.16;;;7.38;72.15
63652;BME280;49801;37.536;-122.304;2022-12-18T01:27:13;101631.34;;;7.36;72.33
63652;BME280;49801;37.536;-122.304;2022-12-18T01:27:39;101634.03;;;7.36;71.98
63652;BME280;49801;37.536;-122.304;2022-12-18T01:28:05;101633.44;;;7.32;72.25
63652;BME280;49801;37.536;-122.304;2022-12-18T01:28:30;101630.75;;;7.32;72.64
63652;BME280;49801;37.536;-122.304;2022-12-18T01:28:56;101636.25;;;7.30;72.62
63652;BME280;49801;37.536;-122.304;2022-12-18T01:29:22;101629.19;;;7.29;72.49
63652;BME280;49801;37.536;-122.304;2022-12-18T01:29:48;101627.44;;;7.28;72.41
63652;BME280;49801;37.536;-122.304;2022-12-18T01:30:14;101626.75;;;7.26;72.58
63652;BME280;49801;37.536;-122.304;2022-12-18T01:30:40;101631.41;;;7.24;72.71
63652;BME280;49801;37.536;-122.304;2022-12-18T01:31:13;101632.38;;;7.23;72.71
63652;BME280;49801;37.536;-122.304;2022-12-18T01:31:39;101629.94;;;7.20;72.64
63652;BME280;49801;37.536;-122.304;2022-12-18T01:32:05;101634.47;;;7.20;72.65
63652;BME280;49801;37.536;-122.304;2022-12-18T01:32:31;101630.22;;;7.17;72.67
63652;BME280;49801;37.536;-122.304;2022-12-18T01:32:57;101629.34;;;7.17;72.86
63652;BME280;49801;37.536;-122.304;2022-12-18T01:33:23;101633.88;;;7.16;72.98
63652;BME280;49801;37.536;-122.304;2022-12-18T01:33:49;101631.31;;;7.14;72.98
63652;BME280;49801;37.536;-122.304;2022-12-18T01:34:15;101625.06;;;7.14;72.91
63652;BME280;49801;37.536;-122.304;2022-12-18T01:34:41;101634.13;;;7.13;72.91
63652;BME280;49801;37.536;-122.304;2022-12-18T01:35:07;101633.28;;;7.12;72.82
63652;BME280;49801;37.536;-122.304;2022-12-18T01:35:32;101627.06;;;7.12;72.93
63652;BME280;49801;37.536;-122.304;2022-12-18T01:35:58;101633.28;;;7.12;73.06
63652;BME280;49801;37.536;-122.304;2022-12-18T01:36:50;101632.69;;;7.09;73.22
63652;BME280;49801;37.536;-122.304;2022-12-18T01:37:18;101624.72;;;7.07;73.20
63652;BME280;49801;37.536;-122.304;2022-12-18T01:37:44;101627.56;;;7.06;73.54
63652;BME280;49801;37.536;-122.304;2022-12-18T01:38:10;101630.38;;;7.04;73.46
63652;BME280;49801;37.536;-122.304;2022-12-18T01:38:35;101635.88;;;7.03;73.61
63652;BME280;49801;37.536;-122.304;2022-12-18T01:39:03;101634.19;;;7.02;73.74
63652;BME280;49801;37.536;-122.304;2022-12-18T01:39:29;101626.38;;;6.99;73.80
63652;BME280;49801;37.536;-122.304;2022-12-18T01:39:57;101631.75;;;6.99;73.73
63652;BME280;49801;37.536;-122.304;2022-12-18T01:40:22;101635.41;;;6.98;73.86
63652;BME280;49801;37.536;-122.304;2022-12-18T01:40:48;101637.38;;;6.95;74.18
63652;BME280;49801;37.536;-122.304;2022-12-18T01:41:15;101633.97;;;6.93;73.92
63652;BME280;49801;37.536;-122.304;2022-12-18T01:41:41;101630.56;;;6.91;73.79
63652;BME280;49801;37.536;-122.304;2022-12-18T01:42:25;101636.19;;;6.88;74.21
63652;BME280;49801;37.536;-122.304;2022-12-18T01:42:51;101639.84;;;6.87;74.02
63652;BME280;49801;37.536;-122.304;2022-12-18T01:43:17;101636.44;;;6.85;74.33
63652;BME280;49801;37.536;-122.304;2022-12-18T01:43:44;101640.13;;;6.84;74.44
63652;BME280;49801;37.536;-122.304;2022-12-18T01:45:32;101635.22;;;6.78;74.40
63652;BME280;49801;37.536;-122.304;2022-12-18T01:45:59;101644.28;;;6.77;74.33
63652;BME280;49801;37.536;-122.304;2022-12-18T01:46:25;101641.72;;;6.75;74.32
63652;BME280;49801;37.536;-122.304;2022-12-18T01:46:51;101643.56;;;6.75;74.35
63652;BME280;49801;37.536;-122.304;2022-12-18T01:48:06;101640.25;;;6.71;74.62
63652;BME280;49801;37.536;-122.304;2022-12-18T01:48:33;101637.81;;;6.68;74.55
63652;BME280;49801;37.536;-122.304;2022-12-18T01:49:00;101644.19;;;6.67;74.74
63652;BME280;49801;37.536;-122.304;2022-12-18T01:49:26;101642.59;;;6.65;74.98
63652;BME280;49801;37.536;-122.304;2022-12-18T01:49:52;101645.28;;;6.65;74.76
63652;BME280;49801;37.536;-122.304;2022-12-18T01:50:59;101640.13;;;6.62;74.91
63652;BME280;49801;37.536;-122.304;2022-12-18T01:51:25;101634.75;;;6.62;75.13
63652;BME280;49801;37.536;-122.304;2022-12-18T01:51:52;101646.66;;;6.59;75.21
63652;BME280;49801;37.536;-122.304;2022-12-18T01:52:18;101642.34;;;6.56;75.36
63652;BME280;49801;37.536;-122.304;2022-12-18T01:52:51;101646.03;;;6.55;75.33
63652;BME280;49801;37.536;-122.304;2022-12-18T01:53:19;101640.66;;;6.55;75.30
63652;BME280;49801;37.536;-122.304;2022-12-18T01:53:46;101648.00;;;6.53;75.24
63652;BME280;49801;37.536;-122.304;2022-12-18T01:54:12;101639.19;;;6.51;75.45
63652;BME280;49801;37.536;-122.304;2022-12-18T01:54:38;101641.03;;;6.51;75.30
63652;BME280;49801;37.536;-122.304;2022-12-18T01:55:04;101641.16;;;6.49;75.43
63652;BME280;49801;37.536;-122.304;2022-12-18T01:55:31;101639.44;;;6.48;75.64
63652;BME280;49801;37.536;-122.304;2022-12-18T01:55:58;101641.38;;;6.46;75.71
63652;BME280;49801;37.536;-122.304;2022-12-18T01:56:24;101643.34;;;6.44;76.09
63652;BME280;49801;37.536;-122.304;2022-12-18T01:56:50;101646.16;;;6.43;76.05
63652;BME280;49801;37.536;-122.304;2022-12-18T01:57:16;101647.88;;;6.44;76.27
63652;BME280;49801;37.536;-122.304;2022-12-18T01:57:42;101649.72;;;6.43;76.31
63652;BME280;49801;37.536;-122.304;2022-12-18T01:58:08;101643.59;;;6.41;76.48
63652;BME280;49801;37.536;-122.304;2022-12-18T01:59:03;101645.56;;;6.39;77.02
63652;BME280;49801;37.536;-122.304;2022-12-18T01:59:31;101649.25;;;6.38;76.50
63652;BME280;49801;37.536;-122.304;2022-12-18T02:00:03;101646.66;;;6.36;76.73
63652;BME280;49801;37.536;-122.304;2022-12-18T02:00:29;101647.63;;;6.35;77.01
63652;BME280;49801;37.536;-122.304;2022-12-18T02:00:55;101649.47;;;6.35;76.96
63652;BME280;49801;37.536;-122.304;2022-12-18T02:01:22;101640.56;;;6.34;77.14
63652;BME280;49801;37.536;-122.304;2022-12-18T02:01:48;101646.06;;;6.33;76.99
63652;BME280;49801;37.536;-122.304;2022-12-18T02:02:15;101648.00;;;6.31;77.06
63652;BME280;49801;37.536;-122.304;2022-12-18T02:02:41;101645.31;;;6.31;77.08
63652;BME280;49801;37.536;-122.304;2022-12-18T02:03:08;101643.63;;;6.30;77.28
63652;BME280;49801;37.536;-122.304;2022-12-18T02:03:34;101640.19;;;6.28;77.52
63652;BME280;49801;37.536;-122.304;2022-12-18T02:04:44;101644.81;;;6.26;77.55
63652;BME280;49801;37.536;-122.304;2022-12-18T02:05:10;101646.78;;;6.24;77.60
63652;BME280;49801;37.536;-122.304;2022-12-18T02:05:44;101653.03;;;6.24;77.69
63652;BME280;49801;37.536;-122.304;2022-12-18T02:07:55;101648.97;;;6.18;78.04
63652;BME280;49801;37.536;-122.304;2022-12-18T02:08:41;101644.59;;;6.17;78.31
63652;BME280;49801;37.536;-122.304;2022-12-18T02:09:15;101651.78;;;6.17;78.65
63652;BME280;49801;37.536;-122.304;2022-12-18T02:09:52;101648.25;;;6.16;78.68
63652;BME280;49801;37.536;-122.304;2022-12-18T02:10:32;101647.53;;;6.14;79.07
63652;BME280;49801;37.536;-122.304;2022-12-18T02:11:11;101641.31;;;6.14;78.91
63652;BME280;49801;37.536;-122.304;2022-12-18T02:12:11;101645.91;;;6.12;79.37
63652;BME280;49801;37.536;-122.304;2022-12-18T02:12:53;101638.97;;;6.09;79.16
63652;BME280;49801;37.536;-122.304;2022-12-18T02:13:57;101641.78;;;6.08;79.70
63652;BME280;49801;37.536;-122.304;2022-12-18T02:14:35;101635.56;;;6.07;79.70
63652;BME280;49801;37.536;-122.304;2022-12-18T02:15:09;101642.88;;;6.05;79.72
63652;BME280;49801;37.536;-122.304;2022-12-18T02:17:42;101641.41;;;6.01;80.15
63652;BME280;49801;37.536;-122.304;2022-12-18T02:18:14;101645.09;;;6.00;79.97
63652;BME280;49801;37.536;-122.304;2022-12-18T02:18:45;101642.63;;;5.97;80.60
63652;BME280;49801;37.536;-122.304;2022-12-18T02:19:21;101646.28;;;5.96;80.46
63652;BME280;49801;37.536;-122.304;2022-12-18T02:21:57;101638.41;;;5.93;81.62
63652;BME280;49801;37.536;-122.304;2022-12-18T02:23:41;101639.66;;;5.89;81.61
63652;BME280;49801;37.536;-122.304;2022-12-18T02:25:34;101638.03;;;5.86;81.90
63652;BME280;49801;37.536;-122.304;2022-12-18T02:25:39;101640.59;;;5.88;81.92
63652;BME280;49801;37.536;-122.304;2022-12-18T02:26:08;101630.13;;;5.85;81.82
63652;BME280;49801;37.536;-122.304;2022-12-18T02:26:37;101640.88;;;5.85;81.96
63652;BME280;49801;37.536;-122.304;2022-12-18T02:27:06;101630.25;;;5.83;82.35
63652;BME280;49801;37.536;-122.304;2022-12-18T02:27:33;101634.75;;;5.82;82.25
63652;BME280;49801;37.536;-122.304;2022-12-18T02:28:02;101636.56;;;5.82;82.46
63652;BME280;49801;37.536;-122.304;2022-12-18T02:28:30;101641.97;;;5.82;82.00
63652;BME280;49801;37.536;-122.304;2022-12-18T02:29:00;101640.38;;;5.79;82.35
63652;BME280;49801;37.536;-122.304;2022-12-18T02:29:33;101634.13;;;5.79;82.57
63652;BME280;49801;37.536;-122.304;2022-12-18T02:30:01;101642.19;;;5.79;82.79
63652;BME280;49801;37.536;-122.304;2022-12-18T02:30:28;101635.13;;;5.78;82.79
63652;BME280;49801;37.536;-122.304;2022-12-18T02:30:56;101635.97;;;5.78;82.76
63652;BME280;49801;37.536;-122.304;2022-12-18T02:31:25;101641.34;;;5.78;82.76